Time;durP1;ratioP1;P1;durP2;ratioP2;P2;SDS_P1;SDS_P2;PMS_P1;PMS_P2;Temp;Humidity;BMP_temperature;BMP_pressure;BME280_temperature;BME280_humidity;BME280_pressure;Samples;Min_cycle;Max_cycle;Signal;HPM_P1;HPM_P2
2022/04/08 00:01:25;;;;;;;5.80;2.00;;;;;;;4.61;86.10;96328.97;104716;1274;59536;-61
2022/04/08 00:04:13;;;;;;;6.80;1.60;;;;;;;4.60;85.87;96330.09;104774;1274;72844;-61
2022/04/08 00:07:01;;;;;;;5.60;1.70;;;;;;;4.62;85.59;96326.42;104732;1274;69571;-63
2022/04/08 00:09:50;;;;;;;5.50;1.80;;;;;;;4.62;85.55;96324.64;104915;1274;70784;-62
2022/04/08 00:12:38;;;;;;;5.50;1.60;;;;;;;4.61;85.05;96314.79;104885;1274;60433;-66
2022/04/08 00:15:26;;;;;;;5.80;1.60;;;;;;;4.57;85.41;96317.70;105014;1274;59687;-64
2022/04/08 00:18:14;;;;;;;5.60;1.80;;;;;;;4.52;85.40;96322.42;104140;1274;1003153;-62
2022/04/08 00:21:03;;;;;;;6.70;1.80;;;;;;;4.50;85.83;96322.02;105112;1274;69003;-64
2022/04/08 00:23:52;;;;;;;6.90;1.70;;;;;;;4.49;86.17;96322.77;104729;1274;74407;-66
2022/04/08 00:26:42;;;;;;;5.80;1.70;;;;;;;4.49;86.35;96315.52;104876;1274;59833;-64
2022/04/08 00:29:30;;;;;;;5.90;1.60;;;;;;;4.52;86.52;96315.45;104671;1274;59785;-62
2022/04/08 00:32:19;;;;;;;6.40;1.50;;;;;;;4.52;86.29;96313.10;104926;1274;74418;-64
2022/04/08 00:35:08;;;;;;;6.00;1.60;;;;;;;4.53;86.05;96310.74;104796;1274;68190;-64
2022/04/08 00:37:57;;;;;;;5.20;1.50;;;;;;;4.52;85.99;96307.64;104550;1274;74666;-63
2022/04/08 00:40:45;;;;;;;5.20;1.60;;;;;;;4.53;85.82;96311.26;104580;1275;59762;-61
2022/04/08 00:43:39;;;;;;;6.60;1.80;;;;;;;4.54;85.57;96307.04;104751;1274;60907;-62
2022/04/08 00:46:27;;;;;;;5.70;1.30;;;;;;;4.57;85.47;96304.33;104899;1274;75107;-64
2022/04/08 00:49:15;;;;;;;5.00;1.40;;;;;;;4.58;85.17;96304.30;104135;1274;1003404;-62
2022/04/08 00:52:05;;;;;;;5.70;1.60;;;;;;;4.60;85.20;96311.00;105012;1274;72162;-66
2022/04/08 00:54:53;;;;;;;7.30;2.20;;;;;;;4.60;84.67;96305.69;103333;1274;1003869;-63
2022/04/08 00:57:41;;;;;;;5.70;1.70;;;;;;;4.63;84.42;96309.06;105034;1274;60572;-61
2022/04/08 01:00:34;;;;;;;6.30;1.60;;;;;;;4.65;84.12;96308.28;104799;1274;74728;-62
2022/04/08 01:03:22;;;;;;;6.70;1.70;;;;;;;4.66;83.00;96304.01;104500;1275;68560;-60
2022/04/08 01:06:10;;;;;;;5.70;1.60;;;;;;;4.68;82.72;96301.85;104754;1274;72662;-61
2022/04/08 01:08:58;;;;;;;6.20;1.40;;;;;;;4.68;82.72;96300.58;104604;1274;59809;-61
2022/04/08 01:11:46;;;;;;;5.70;1.60;;;;;;;4.70;82.92;96307.00;104710;1274;60260;-67
2022/04/08 01:14:41;;;;;;;5.60;1.60;;;;;;;4.71;82.71;96294.98;104637;1275;73823;-63
2022/04/08 01:17:29;;;;;;;6.20;1.40;;;;;;;4.71;83.01;96292.88;104674;1274;69777;-62
2022/04/08 01:20:18;;;;;;;5.40;1.60;;;;;;;4.70;83.03;96290.15;104676;1274;74239;-61
2022/04/08 01:23:06;;;;;;;6.60;1.40;;;;;;;4.70;83.13;96286.46;104685;1274;59697;-62
2022/04/08 01:25:54;;;;;;;6.70;1.80;;;;;;;4.69;83.30;96292.04;104723;1274;61007;-62
2022/04/08 01:28:43;;;;;;;6.20;1.60;;;;;;;4.64;83.48;96282.65;104709;1274;73912;-62
2022/04/08 01:31:31;;;;;;;5.90;1.80;;;;;;;4.67;83.59;96292.35;104724;1274;67425;-61
2022/04/08 01:34:21;;;;;;;7.00;1.50;;;;;;;4.65;83.52;96296.86;104668;1274;72378;-63
2022/04/08 01:37:10;;;;;;;5.80;1.50;;;;;;;4.65;83.47;96291.66;104820;1274;59812;-61
2022/04/08 01:39:58;;;;;;;5.20;1.50;;;;;;;4.66;83.41;96281.38;104704;1274;60898;-61
2022/04/08 01:42:47;;;;;;;6.10;1.70;;;;;;;4.62;83.27;96276.54;104722;1274;74715;-61
2022/04/08 01:45:35;;;;;;;5.90;1.50;;;;;;;4.56;83.28;96264.73;104716;1274;68604;-62
2022/04/08 01:48:23;;;;;;;7.00;1.60;;;;;;;4.49;83.27;96276.99;104908;1274;74467;-61
2022/04/08 01:51:10;;;;;;;5.30;1.30;;;;;;;4.41;83.57;96271.49;105032;1274;59802;-62
2022/04/08 01:53:58;;;;;;;6.00;1.70;;;;;;;4.35;83.87;96271.55;104932;1274;61684;-63
2022/04/08 01:56:46;;;;;;;8.00;1.50;;;;;;;4.29;83.93;96278.64;104747;1274;74830;-63
2022/04/08 01:59:34;;;;;;;5.70;1.70;;;;;;;4.20;84.36;96281.73;104727;1274;70045;-61
2022/04/08 02:02:22;;;;;;;9.50;2.30;;;;;;;4.19;84.77;96284.18;104735;1274;73246;-62
2022/04/08 02:05:10;;;;;;;5.50;1.70;;;;;;;4.16;85.15;96288.73;104912;1274;59719;-61
2022/04/08 02:07:58;;;;;;;7.00;2.00;;;;;;;4.13;85.27;96292.77;104738;1274;61603;-61
2022/04/08 02:10:46;;;;;;;6.00;1.70;;;;;;;4.10;85.64;96294.77;104760;1274;74823;-62
2022/04/08 02:13:34;;;;;;;7.40;1.60;;;;;;;4.08;85.86;96289.76;104745;1274;67509;-62
2022/04/08 02:16:22;;;;;;;6.30;1.90;;;;;;;4.05;85.87;96287.55;104720;1274;74482;-63
2022/04/08 02:19:10;;;;;;;6.90;1.70;;;;;;;4.06;85.91;96297.69;104770;1274;59928;-61
2022/04/08 02:21:58;;;;;;;6.40;1.80;;;;;;;4.07;85.99;96298.64;104729;1274;60592;-63
2022/04/08 02:24:49;;;;;;;6.90;1.70;;;;;;;4.11;85.76;96298.52;104709;1274;72798;-63
2022/04/08 02:27:38;;;;;;;7.70;1.90;;;;;;;4.16;85.63;96289.08;104714;1274;68712;-63
2022/04/08 02:30:26;;;;;;;5.40;1.80;;;;;;;4.20;85.30;96289.86;104765;1274;72458;-63
2022/04/08 02:33:14;;;;;;;5.60;1.70;;;;;;;4.23;85.08;96292.48;104696;1274;59655;-63
2022/04/08 02:36:03;;;;;;;6.90;1.90;;;;;;;4.24;84.88;96284.16;104777;1274;62328;-65
2022/04/08 02:38:50;;;;;;;7.20;2.00;;;;;;;4.21;84.82;96283.05;104832;1274;73759;-64
2022/04/08 02:41:38;;;;;;;5.80;1.70;;;;;;;4.19;84.63;96282.52;104668;1275;68738;-64
2022/04/08 02:44:26;;;;;;;6.00;1.80;;;;;;;4.16;84.74;96286.80;104718;1274;74517;-62
2022/04/08 02:47:14;;;;;;;6.00;2.00;;;;;;;4.13;84.85;96289.04;104693;1274;60491;-63
2022/04/08 02:50:02;;;;;;;6.40;2.20;;;;;;;4.12;85.24;96289.38;104832;1274;60508;-65
2022/04/08 02:52:50;;;;;;;7.30;1.70;;;;;;;4.11;85.41;96286.73;104705;1274;72619;-65
2022/04/08 02:55:38;;;;;;;5.80;1.60;;;;;;;4.13;85.46;96295.16;104743;1274;68509;-61
2022/04/08 02:58:29;;;;;;;6.60;1.80;;;;;;;4.16;85.36;96293.15;104696;1274;73330;-64
2022/04/08 03:01:17;;;;;;;7.20;2.10;;;;;;;4.18;85.61;96298.10;104729;1274;60469;-65
2022/04/08 03:04:06;;;;;;;6.60;2.10;;;;;;;4.22;86.31;96301.83;104673;1274;61076;-61
2022/04/08 03:06:55;;;;;;;8.30;1.90;;;;;;;4.24;87.52;96293.95;104783;1274;74336;-62
2022/04/08 03:09:43;;;;;;;6.30;1.80;;;;;;;4.23;88.72;96298.63;101781;1274;1003712;-62
2022/04/08 03:12:32;;;;;;;6.40;1.90;;;;;;;4.20;89.42;96300.00;104747;1274;73488;-63
2022/04/08 03:15:20;;;;;;;8.40;2.00;;;;;;;4.17;90.19;96311.20;105713;1274;59677;-62
2022/04/08 03:18:08;;;;;;;6.50;1.90;;;;;;;4.13;90.88;96310.02;104734;1274;60512;-63
2022/04/08 03:20:56;;;;;;;6.20;2.00;;;;;;;4.07;91.42;96315.20;104598;1274;73881;-65
2022/04/08 03:23:44;;;;;;;6.10;2.10;;;;;;;4.04;91.70;96312.63;104986;1274;68519;-62
2022/04/08 03:26:32;;;;;;;5.90;1.90;;;;;;;3.99;92.21;96308.63;104917;1274;72231;-67
2022/04/08 03:29:21;;;;;;;6.10;1.90;;;;;;;3.97;92.35;96308.35;104707;1274;59573;-65
2022/04/08 03:32:09;;;;;;;5.70;1.90;;;;;;;3.93;93.04;96307.86;104985;1274;62164;-64
2022/04/08 03:34:57;;;;;;;7.10;2.10;;;;;;;3.88;93.51;96303.14;104766;1274;74751;-64
2022/04/08 03:37:45;;;;;;;6.70;2.10;;;;;;;3.84;94.00;96304.13;104652;1274;67624;-66
2022/04/08 03:40:35;;;;;;;6.90;1.90;;;;;;;3.81;94.44;96301.45;104620;1274;74356;-68
2022/04/08 03:43:23;;;;;;;6.50;1.90;;;;;;;3.82;94.40;96302.44;104633;1274;59812;-66
2022/04/08 03:46:13;;;;;;;6.30;2.10;;;;;;;3.84;94.71;96300.66;104594;1275;59869;-67
2022/04/08 03:49:10;;;;;;;5.40;1.60;;;;;;;3.86;94.84;96299.33;104834;1274;73090;-67
2022/04/08 03:51:59;;;;;;;5.60;1.60;;;;;;;3.88;95.11;96302.85;104974;1274;67458;-67
2022/04/08 03:54:47;;;;;;;6.50;2.10;;;;;;;3.90;95.18;96300.47;104603;1274;74523;-64
2022/04/08 03:57:35;;;;;;;6.20;1.90;;;;;;;3.93;95.03;96298.42;104609;1274;59674;-64
2022/04/08 04:00:22;;;;;;;6.70;2.00;;;;;;;3.96;94.82;96300.16;104639;1274;60959;-65
2022/04/08 04:03:10;;;;;;;5.00;1.60;;;;;;;3.99;94.75;96308.66;104638;1274;73947;-67
2022/04/08 04:06:03;;;;;;;6.10;1.60;;;;;;;4.03;94.22;96315.42;104637;1274;69078;-65
2022/04/08 04:08:51;;;;;;;5.20;1.70;;;;;;;4.07;93.73;96317.17;104682;1274;74500;-68
2022/04/08 04:11:39;;;;;;;5.00;1.40;;;;;;;4.08;93.21;96307.73;104645;1274;59655;-65
2022/04/08 04:14:27;;;;;;;5.40;1.50;;;;;;;4.09;92.82;96298.85;104637;1274;59548;-67
2022/04/08 04:17:15;;;;;;;5.70;1.50;;;;;;;4.09;92.44;96299.98;104685;1274;74742;-66
2022/04/08 04:20:04;;;;;;;6.00;1.70;;;;;;;4.10;92.01;96297.08;104826;1274;68671;-68
2022/04/08 04:22:53;;;;;;;5.60;1.70;;;;;;;4.12;91.74;96294.38;104666;1277;74110;-65
2022/04/08 04:25:41;;;;;;;6.10;1.50;;;;;;;4.16;91.87;96301.47;104392;1277;59662;-64
2022/04/08 04:28:30;;;;;;;4.90;1.60;;;;;;;4.16;91.31;96309.33;104444;1278;60416;-66
2022/04/08 04:31:18;;;;;;;5.90;1.70;;;;;;;4.17;91.59;96309.94;104397;1277;72699;-65
2022/04/08 04:34:06;;;;;;;5.80;1.50;;;;;;;4.19;91.61;96322.73;104756;1278;68198;-64
2022/04/08 04:36:54;;;;;;;5.50;1.70;;;;;;;4.20;91.81;96334.38;104344;1277;72517;-67
2022/04/08 04:39:42;;;;;;;4.60;1.40;;;;;;;4.18;92.64;96364.23;104339;1276;59697;-67
2022/04/08 04:42:29;;;;;;;4.80;1.60;;;;;;;4.07;93.76;96388.63;104402;1278;60367;-68
2022/04/08 04:45:18;;;;;;;4.80;1.10;;;;;;;3.92;92.69;96401.32;104351;1277;74731;-66
2022/04/08 04:48:07;;;;;;;5.10;1.10;;;;;;;3.68;89.25;96407.89;104430;1277;69657;-68
2022/04/08 04:50:56;;;;;;;5.40;1.30;;;;;;;3.53;88.96;96412.66;104401;1278;72758;-67
2022/04/08 04:53:45;;;;;;;5.80;1.00;;;;;;;3.38;87.85;96417.91;104365;1277;59787;-68
2022/04/08 04:56:33;;;;;;;5.50;1.20;;;;;;;3.30;87.98;96424.57;104317;1276;59669;-66
2022/04/08 04:59:21;;;;;;;4.70;1.10;;;;;;;3.18;87.95;96427.25;104400;1277;73677;-64
2022/04/08 05:02:09;;;;;;;5.60;1.20;;;;;;;3.10;88.09;96443.95;104405;1277;69303;-65
2022/04/08 05:04:57;;;;;;;5.80;1.40;;;;;;;3.01;88.84;96449.35;104410;1278;71726;-68
2022/04/08 05:07:45;;;;;;;4.30;1.20;;;;;;;2.94;89.86;96454.60;104432;1277;59868;-67
2022/04/08 05:10:33;;;;;;;5.60;1.30;;;;;;;2.90;89.36;96474.10;104413;1277;59676;-65
2022/04/08 05:13:20;;;;;;;4.70;1.10;;;;;;;2.91;89.53;96471.16;104332;1277;73773;-68
2022/04/08 05:16:09;;;;;;;5.70;1.40;;;;;;;2.92;88.16;96474.40;104398;1277;68688;-67
2022/04/08 05:18:57;;;;;;;8.50;1.60;;;;;;;2.94;87.09;96469.07;104404;1277;71396;-66
2022/04/08 05:21:45;;;;;;;6.30;1.30;;;;;;;2.99;86.92;96475.07;104885;1275;59848;-66
2022/04/08 05:24:34;;;;;;;5.90;1.30;;;;;;;2.96;86.72;96470.18;104397;1278;60848;-67
2022/04/08 05:27:21;;;;;;;5.70;1.30;;;;;;;2.93;86.30;96484.33;104783;1278;74049;-65
2022/04/08 05:30:18;;;;;;;5.40;1.20;;;;;;;2.92;86.53;96482.27;104801;1278;67131;-69
2022/04/08 05:33:06;;;;;;;6.60;1.20;;;;;;;2.90;87.11;96487.73;104499;1277;72477;-65
2022/04/08 05:35:54;;;;;;;5.30;1.30;;;;;;;2.87;86.72;96489.02;104440;1277;59817;-67
2022/04/08 05:38:42;;;;;;;6.20;1.30;;;;;;;2.87;86.98;96500.52;104609;1277;60559;-67
2022/04/08 05:41:30;;;;;;;6.80;1.20;;;;;;;2.83;87.35;96517.19;104700;1277;73906;-68
2022/04/08 05:44:20;;;;;;;6.00;1.30;;;;;;;2.79;87.75;96521.29;104544;1277;67004;-66
2022/04/08 05:47:08;;;;;;;7.10;1.70;;;;;;;2.79;88.24;96541.36;104498;1277;72270;-67
2022/04/08 05:50:00;;;;;;;7.20;1.30;;;;;;;2.84;88.16;96545.05;104475;1277;59857;-67
2022/04/08 05:52:51;;;;;;;7.40;1.90;;;;;;;2.92;87.34;96551.66;104582;1277;60621;-67
2022/04/08 05:55:39;;;;;;;6.00;1.30;;;;;;;3.07;86.45;96557.96;104562;1277;74363;-66
2022/04/08 05:58:28;;;;;;;4.70;1.10;;;;;;;3.20;85.30;96562.02;104803;1277;67237;-64
2022/04/08 06:01:16;;;;;;;7.50;1.30;;;;;;;3.20;84.29;96575.01;104484;1277;75190;-67
2022/04/08 06:04:05;;;;;;;4.80;1.20;;;;;;;3.30;82.71;96568.43;104595;1277;59780;-65
2022/04/08 06:06:54;;;;;;;5.70;1.10;;;;;;;3.35;79.31;96582.95;104571;1278;59620;-66
2022/04/08 06:09:42;;;;;;;6.40;1.10;;;;;;;3.35;77.99;96590.10;104435;1277;73906;-73
2022/04/08 06:12:30;;;;;;;5.60;1.10;;;;;;;3.33;78.96;96600.38;104491;1276;68122;-67
2022/04/08 06:15:19;;;;;;;7.10;1.40;;;;;;;3.24;80.83;96605.45;104617;1278;74928;-67
2022/04/08 06:18:10;;;;;;;8.20;1.50;;;;;;;3.12;81.83;96614.05;104432;1278;59833;-70
2022/04/08 06:20:57;;;;;;;8.40;2.10;;;;;;;3.06;82.64;96615.02;104688;1274;59561;-67
2022/04/08 06:23:46;;;;;;;9.10;1.80;;;;;;;3.03;82.93;96626.48;104653;1274;72750;-67
2022/04/08 06:26:35;;;;;;;7.50;1.40;;;;;;;3.04;82.48;96636.34;104689;1274;68726;-67
2022/04/08 06:29:23;;;;;;;6.00;1.30;;;;;;;3.04;82.82;96636.73;104656;1274;73727;-67
2022/04/08 06:32:12;;;;;;;6.10;1.50;;;;;;;3.11;82.24;96641.14;104653;1274;59801;-66
2022/04/08 06:34:59;;;;;;;6.80;1.60;;;;;;;3.25;80.42;96637.23;104717;1274;61480;-67
2022/04/08 06:37:48;;;;;;;7.70;1.60;;;;;;;3.41;77.91;96646.98;104984;1274;73845;-64
2022/04/08 06:40:38;;;;;;;6.20;1.40;;;;;;;3.55;77.04;96645.36;104651;1274;68670;-69
2022/04/08 06:43:26;;;;;;;10.10;1.80;;;;;;;3.68;77.57;96658.58;104656;1274;72616;-65
2022/04/08 06:46:14;;;;;;;7.90;1.60;;;;;;;3.77;78.07;96672.63;104645;1274;59696;-67
2022/04/08 06:49:02;;;;;;;5.70;1.80;;;;;;;4.08;77.07;96675.02;104639;1275;60759;-69
2022/04/08 06:51:53;;;;;;;6.60;1.30;;;;;;;6.15;69.63;96659.00;104674;1275;74718;-69
2022/04/08 06:54:42;;;;;;;7.10;1.50;;;;;;;7.68;61.28;96654.52;104686;1274;68763;-69
2022/04/08 06:57:29;;;;;;;7.50;1.70;;;;;;;7.79;58.29;96687.70;104705;1274;73697;-67
2022/04/08 07:00:17;;;;;;;7.30;1.60;;;;;;;7.64;58.32;96686.59;104753;1274;59671;-67
2022/04/08 07:03:09;;;;;;;10.10;1.90;;;;;;;8.37;56.47;96693.81;105060;1274;59673;-69
2022/04/08 07:05:57;;;;;;;7.10;1.20;;;;;;;8.88;53.15;96705.31;104761;1274;74670;-73
2022/04/08 07:08:45;;;;;;;7.00;1.50;;;;;;;8.96;51.44;96698.42;104671;1274;68307;-68
2022/04/08 07:11:33;;;;;;;7.70;1.90;;;;;;;10.01;48.32;96696.79;104732;1274;74606;-68
2022/04/08 07:14:21;;;;;;;7.80;1.70;;;;;;;11.27;45.30;96693.83;104649;1273;59672;-67
2022/04/08 07:17:10;;;;;;;6.60;1.50;;;;;;;11.99;43.19;96693.41;104871;1274;59584;-68
2022/04/08 07:20:16;;;;;;;5.70;1.50;;;;;;;11.64;43.47;96706.41;104869;1274;74494;-68
2022/04/08 07:23:06;;;;;;;8.20;1.50;;;;;;;10.22;45.77;96732.09;104933;1274;68608;-70
2022/04/08 07:25:54;;;;;;;6.80;1.90;;;;;;;9.14;48.54;96734.31;104698;1275;72256;-69
2022/04/08 07:28:43;;;;;;;7.40;1.60;;;;;;;8.42;51.33;96746.77;104620;1274;59812;-67
2022/04/08 07:31:31;;;;;;;8.80;1.60;;;;;;;7.78;53.20;96759.54;104635;1274;61993;-72
2022/04/08 07:34:23;;;;;;;5.80;1.40;;;;;;;7.18;55.28;96773.04;104938;1274;72480;-68
2022/04/08 07:37:11;;;;;;;7.00;1.40;;;;;;;6.69;57.71;96785.03;104717;1274;69377;-66
2022/04/08 07:39:59;;;;;;;7.40;1.80;;;;;;;6.40;59.05;96794.85;104648;1274;73483;-70
2022/04/08 07:42:47;;;;;;;8.10;1.90;;;;;;;7.73;56.98;96793.27;104779;1274;59709;-68
2022/04/08 07:45:35;;;;;;;7.20;1.80;;;;;;;9.89;50.52;96788.14;104678;1274;60612;-70
2022/04/08 07:48:23;;;;;;;6.50;1.80;;;;;;;11.50;44.05;96801.70;104642;1275;74739;-67
2022/04/08 07:51:12;;;;;;;6.80;1.40;;;;;;;12.86;40.91;96801.66;104597;1275;71029;-69
2022/04/08 07:54:00;;;;;;;6.60;1.30;;;;;;;12.89;39.69;96803.84;104651;1274;74728;-68
2022/04/08 07:56:48;;;;;;;6.60;1.70;;;;;;;13.24;39.66;96810.13;104650;1274;59930;-67
2022/04/08 07:59:37;;;;;;;8.60;1.40;;;;;;;12.39;39.75;96815.08;104578;1274;60805;-67
2022/04/08 08:02:29;;;;;;;10.30;2.30;;;;;;;11.35;40.85;96821.81;104614;1275;74621;-67
2022/04/08 08:05:20;;;;;;;6.20;1.40;;;;;;;10.10;44.04;96833.08;104658;1274;68688;-71
2022/04/08 08:08:09;;;;;;;6.50;1.30;;;;;;;9.28;46.27;96847.48;104787;1275;72057;-69
2022/04/08 08:10:58;;;;;;;8.60;1.60;;;;;;;8.68;48.55;96847.58;104794;1274;59543;-69
2022/04/08 08:13:45;;;;;;;7.30;1.60;;;;;;;8.18;50.51;96864.27;104826;1275;60533;-70
2022/04/08 08:16:33;;;;;;;7.60;1.50;;;;;;;7.72;52.08;96870.80;104906;1275;73786;-71
2022/04/08 08:19:21;;;;;;;7.90;1.60;;;;;;;7.25;53.78;96890.05;104952;1274;66607;-69
2022/04/08 08:22:09;;;;;;;6.10;1.60;;;;;;;6.94;55.44;96901.66;104782;1275;74468;-71
2022/04/08 08:24:56;;;;;;;9.60;1.60;;;;;;;6.95;56.12;96911.64;104704;1274;59699;-71
2022/04/08 08:27:48;;;;;;;8.80;1.80;;;;;;;7.38;54.95;96927.95;104766;1275;59668;-71
2022/04/08 08:30:38;;;;;;;9.90;1.90;;;;;;;8.27;53.48;96921.66;104886;1274;74975;-75
2022/04/08 08:33:26;;;;;;;8.60;1.80;;;;;;;9.23;49.79;96921.94;104671;1274;68645;-69
2022/04/08 08:36:14;;;;;;;7.80;1.50;;;;;;;9.20;49.18;96936.32;105042;1274;72423;-72
2022/04/08 08:39:02;;;;;;;6.70;1.90;;;;;;;9.22;48.86;96941.48;104771;1274;59783;-70
2022/04/08 08:41:50;;;;;;;7.80;1.60;;;;;;;9.65;47.65;96947.50;104815;1274;60607;-72
2022/04/08 08:44:39;;;;;;;8.70;1.50;;;;;;;9.81;45.25;96928.34;104523;1274;72658;-70
2022/04/08 08:47:29;;;;;;;7.20;1.60;;;;;;;10.32;43.43;96945.35;104652;1275;67026;-72
2022/04/08 08:50:18;;;;;;;9.10;1.60;;;;;;;10.21;43.64;96959.90;104646;1274;72074;-69
2022/04/08 08:53:07;;;;;;;7.40;1.50;;;;;;;9.67;43.99;96967.39;104689;1275;59780;-71
2022/04/08 08:55:55;;;;;;;10.10;1.70;;;;;;;10.68;42.88;96982.09;104803;1275;59681;-70
2022/04/08 08:58:42;;;;;;;8.90;1.90;;;;;;;12.44;37.30;96973.05;104801;1274;71015;-70
2022/04/08 09:01:32;;;;;;;9.70;1.70;;;;;;;13.51;32.07;96980.58;104879;1274;66862;-69
2022/04/08 09:04:19;;;;;;;8.10;2.00;;;;;;;13.41;31.41;96991.66;104637;1274;73802;-71
2022/04/08 09:07:21;;;;;;;6.80;1.40;;;;;;;13.07;32.66;97002.84;104780;1274;355238;-72
2022/04/08 09:10:09;;;;;;;8.30;1.70;;;;;;;14.49;31.90;97007.08;104782;1274;60296;-69
2022/04/08 09:13:02;;;;;;;6.70;1.50;;;;;;;15.87;30.89;97011.56;104837;1275;72003;-73
2022/04/08 09:16:00;;;;;;;8.30;1.40;;;;;;;16.09;29.02;97006.89;104791;1275;68139;-70
2022/04/08 09:18:48;;;;;;;11.60;1.80;;;;;;;15.36;28.97;97029.02;104489;1275;73473;-70
2022/04/08 09:21:37;;;;;;;6.90;1.50;;;;;;;14.22;28.52;97027.16;105213;1274;59677;-69
2022/04/08 09:24:25;;;;;;;8.30;1.60;;;;;;;13.90;28.16;97041.10;105040;1275;59662;-69
2022/04/08 09:27:14;;;;;;;7.70;1.60;;;;;;;13.99;27.55;97054.01;105042;1274;74333;-71
2022/04/08 09:30:02;;;;;;;8.60;1.80;;;;;;;14.56;27.86;97059.48;104715;1275;68355;-72
2022/04/08 09:32:54;;;;;;;9.00;1.70;;;;;;;15.10;28.32;97069.19;104854;1274;72084;-71
2022/04/08 09:35:43;;;;;;;7.90;1.60;;;;;;;14.76;25.96;97085.56;104778;1275;59706;-71
2022/04/08 09:38:31;;;;;;;8.00;1.60;;;;;;;15.34;24.85;97091.19;104904;1275;61554;-69
2022/04/08 09:41:44;;;;;;;9.70;1.70;;;;;;;16.40;25.05;97087.09;104850;1275;73716;-70
2022/04/08 09:44:35;;;;;;;8.10;1.40;;;;;;;17.09;24.53;97113.50;104995;1275;67503;-67
2022/04/08 09:47:23;;;;;;;9.70;1.90;;;;;;;17.49;23.84;97109.55;104873;1275;73318;-68
2022/04/08 09:50:11;;;;;;;7.60;1.40;;;;;;;17.68;23.46;97113.95;104728;1274;59722;-70
2022/04/08 09:52:58;;;;;;;7.80;1.60;;;;;;;17.65;23.44;97129.20;105581;1274;61144;-70
2022/04/08 09:55:46;;;;;;;7.10;1.50;;;;;;;17.65;23.40;97117.69;104689;1274;73800;-71
2022/04/08 09:58:36;;;;;;;7.30;1.60;;;;;;;17.78;22.47;97132.70;104788;1274;68736;-71
2022/04/08 10:01:26;;;;;;;7.10;1.30;;;;;;;17.94;21.87;97146.39;104755;1274;73628;-70
2022/04/08 10:04:14;;;;;;;9.60;1.60;;;;;;;18.02;21.54;97152.20;104713;1274;59937;-71
2022/04/08 10:07:03;;;;;;;12.10;1.50;;;;;;;17.87;21.86;97152.98;104847;1274;61003;-69
2022/04/08 10:10:27;;;;;;;9.80;1.70;;;;;;;16.80;23.03;97164.88;104661;1274;73841;-70
2022/04/08 10:13:48;;;;;;;10.20;1.40;;;;;;;16.38;24.27;97164.56;105015;1274;69671;-72
2022/04/08 10:16:40;;;;;;;7.30;1.40;;;;;;;16.84;23.66;97164.62;104849;1274;71365;-71
2022/04/08 10:19:30;;;;;;;9.30;1.70;;;;;;;17.63;22.99;97168.90;104657;1274;59705;-70
2022/04/08 10:22:20;;;;;;;10.60;1.80;;;;;;;17.50;22.67;97176.77;104990;1274;59630;-69
2022/04/08 10:25:17;;;;;;;10.60;1.60;;;;;;;17.61;23.04;97167.91;104614;1275;71842;-68
2022/04/08 10:28:06;;;;;;;7.30;1.20;;;;;;;17.55;22.72;97173.29;104849;1275;68402;-72
2022/04/08 10:30:54;;;;;;;9.70;1.50;;;;;;;16.77;22.95;97173.45;104693;1275;72138;-69
2022/04/08 10:33:52;;;;;;;12.60;2.10;;;;;;;15.63;24.69;97192.33;104604;1275;59790;-70
2022/04/08 10:36:44;;;;;;;8.60;1.50;;;;;;;14.99;26.01;97202.81;104850;1274;62040;-74
2022/04/08 10:39:32;;;;;;;8.80;1.50;;;;;;;14.42;26.98;97199.60;104696;1274;73290;-67
2022/04/08 10:42:22;;;;;;;10.20;1.40;;;;;;;14.11;27.72;97209.32;104660;1275;69651;-68
2022/04/08 10:45:14;;;;;;;9.20;1.90;;;;;;;13.63;27.35;97213.65;104720;1274;74435;-75
2022/04/08 10:48:14;;;;;;;9.10;1.80;;;;;;;13.53;26.60;97219.47;104676;1275;59940;-69
2022/04/08 10:51:14;;;;;;;8.10;1.60;;;;;;;14.04;26.13;97212.35;104604;1275;60588;-68
2022/04/08 10:54:04;;;;;;;8.20;1.60;;;;;;;14.41;26.29;97227.23;104561;1274;73868;-70
2022/04/08 10:56:58;;;;;;;7.70;1.70;;;;;;;14.80;25.76;97223.45;104534;1275;67638;-70
2022/04/08 10:59:54;;;;;;;8.20;1.70;;;;;;;15.18;25.76;97225.33;104784;1275;71906;-74
2022/04/08 11:02:46;;;;;;;12.80;2.10;;;;;;;15.11;25.69;97226.23;105256;1274;59703;-70
2022/04/08 11:05:38;;;;;;;9.40;1.90;;;;;;;15.03;26.44;97239.59;104569;1275;61872;-71
2022/04/08 11:08:26;;;;;;;11.90;2.40;;;;;;;14.96;25.53;97229.81;104794;1274;73878;-68
2022/04/08 11:11:14;;;;;;;9.50;1.60;;;;;;;15.24;25.97;97242.27;105165;1274;68217;-71
2022/04/08 11:14:04;;;;;;;8.10;1.80;;;;;;;14.36;27.36;97257.73;105031;1274;71340;-70
2022/04/08 11:16:52;;;;;;;9.80;1.80;;;;;;;13.25;29.33;97263.28;104996;1275;59827;-70
2022/04/08 11:19:40;;;;;;;9.40;1.80;;;;;;;13.36;29.22;97265.66;104951;1274;60560;-75
2022/04/08 11:22:42;;;;;;;10.90;2.10;;;;;;;13.21;28.91;97261.27;105037;1274;73784;-73
2022/04/08 11:25:31;;;;;;;9.00;2.20;;;;;;;13.62;28.81;97259.81;104698;1275;68125;-72
2022/04/08 11:28:22;;;;;;;10.00;1.80;;;;;;;14.01;27.97;97268.02;104691;1274;73570;-73
2022/04/08 11:31:10;;;;;;;9.00;1.50;;;;;;;13.90;27.20;97266.68;104885;1274;59716;-69
2022/04/08 11:34:02;;;;;;;10.30;1.60;;;;;;;13.05;27.93;97281.33;104661;1274;60521;-70
2022/04/08 11:36:54;;;;;;;8.90;1.60;;;;;;;12.00;29.09;97290.91;104736;1274;73772;-73
2022/04/08 11:39:42;;;;;;;8.90;1.60;;;;;;;11.65;30.48;97300.41;104765;1275;69420;-69
2022/04/08 11:42:31;;;;;;;7.60;1.70;;;;;;;11.11;31.50;97295.02;104883;1275;73384;-70
2022/04/08 11:45:19;;;;;;;10.70;1.50;;;;;;;10.75;32.87;97304.89;104905;1274;59693;-71
2022/04/08 11:48:11;;;;;;;10.80;1.70;;;;;;;10.91;32.81;97316.64;104737;1274;61785;-71
2022/04/08 11:51:05;;;;;;;9.90;1.60;;;;;;;11.34;32.54;97302.63;104732;1274;73983;-69
2022/04/08 11:53:53;;;;;;;6.40;1.30;;;;;;;11.08;32.71;97310.59;104902;1274;68146;-76
2022/04/08 11:56:49;;;;;;;8.30;1.50;;;;;;;11.17;32.18;97307.76;104872;1274;74814;-70
2022/04/08 11:59:38;;;;;;;12.80;1.80;;;;;;;11.63;31.34;97304.34;104894;1275;59849;-73
2022/04/08 12:02:29;;;;;;;8.10;1.40;;;;;;;11.86;31.34;97321.73;104664;1275;60016;-70
2022/04/08 12:05:31;;;;;;;9.40;1.60;;;;;;;11.84;30.54;97320.05;105142;1274;73307;-69
2022/04/08 12:08:40;;;;;;;8.90;1.30;;;;;;;11.96;30.08;97315.84;104817;1275;66991;-69
2022/04/08 12:11:30;;;;;;;8.20;1.30;;;;;;;11.59;30.98;97315.30;104765;1275;72494;-70
2022/04/08 12:14:20;;;;;;;7.60;1.10;;;;;;;11.42;31.61;97311.51;104692;1274;59705;-70
2022/04/08 12:17:08;;;;;;;10.20;1.50;;;;;;;10.99;32.68;97308.33;104721;1275;59708;-68
2022/04/08 12:19:56;;;;;;;7.30;1.50;;;;;;;10.58;33.37;97319.38;104748;1274;72631;-69
2022/04/08 12:22:50;;;;;;;7.80;1.40;;;;;;;10.47;34.23;97319.29;104702;1275;68787;-73
2022/04/08 12:25:38;;;;;;;8.10;1.40;;;;;;;10.38;34.17;97319.95;104643;1276;74893;-71
2022/04/08 12:28:30;;;;;;;6.60;1.40;;;;;;;10.23;34.93;97319.80;104683;1275;59767;-71
2022/04/08 12:31:20;;;;;;;6.70;1.30;;;;;;;9.96;34.92;97327.05;104716;1275;60640;-71
2022/04/08 12:34:09;;;;;;;7.40;1.50;;;;;;;9.87;35.70;97317.98;104717;1275;74185;-71
2022/04/08 12:36:59;;;;;;;8.10;1.40;;;;;;;9.80;35.71;97328.07;104933;1275;69520;-70
2022/04/08 12:39:48;;;;;;;8.70;1.60;;;;;;;9.69;36.05;97320.34;104976;1274;73349;-71
2022/04/08 12:42:38;;;;;;;9.10;1.50;;;;;;;9.62;35.56;97335.47;105298;1274;59684;-70
2022/04/08 12:45:28;;;;;;;8.00;1.50;;;;;;;9.39;35.46;97328.20;106540;1274;59578;-69
2022/04/08 12:48:16;;;;;;;7.60;1.30;;;;;;;9.20;35.97;97335.39;106548;1274;72593;-70
2022/04/08 12:51:07;;;;;;;8.10;1.40;;;;;;;9.07;36.29;97344.42;106500;1275;66884;-70
2022/04/08 12:53:58;;;;;;;8.50;1.60;;;;;;;8.93;36.81;97341.27;106014;1275;73304;-69
2022/04/08 12:56:46;;;;;;;8.20;1.60;;;;;;;9.08;37.15;97335.51;105012;1275;59678;-70
2022/04/08 12:59:34;;;;;;;6.70;1.40;;;;;;;9.17;36.93;97336.73;104745;1275;60272;-67
2022/04/08 13:02:27;;;;;;;6.20;1.40;;;;;;;9.12;35.98;97338.10;105098;1274;72775;-67
2022/04/08 13:05:15;;;;;;;7.20;1.40;;;;;;;9.15;36.17;97339.64;104671;1275;69609;-69
2022/04/08 13:08:03;;;;;;;7.60;1.30;;;;;;;9.04;35.34;97343.96;104709;1275;73442;-68
2022/04/08 13:10:51;;;;;;;6.50;1.30;;;;;;;8.93;35.24;97351.89;104648;1275;59664;-68
2022/04/08 13:13:39;;;;;;;6.50;1.20;;;;;;;9.00;35.88;97349.24;104842;1275;59586;-65